• Join FlightAware (Why Join?)
  • Login
  • US Flag 
10:52AM EDT


 

Airport Tracker/Info


-or-


 

Live Flight TrackerFlight Track Log ✈ ASH1016 ✈ 05-May-2013 ✈ PHNL - PHOG / OGG

Flight Track Log - Related Links

Times and Time Zones

All times are in EDT time to prevent confusion due to time zone crossing. See the ASH1016 flight status page for this flight to view local times or setup timezone preferences in your user account.

Time Position Orientation Groundspeed Altitude Reporting Facility
EDT Latitude Longitude Course Direction KTS MPH feet Rate Location/Type
07:20PM 21.3167 -157.9333 223° Southwest 130 150 900  Level Honolulu Center
07:21PM 21.2833 -157.9667 223° Southwest 210 242 3,000 2,460 Climbing Honolulu Center
07:22PM 21.2167 -157.9500 167° South 230 265 5,900 2,400 Climbing Honolulu Center
07:23PM 21.2000 -157.8667 102° East 290 334 7,800 2,040 Climbing Honolulu Center
07:24PM 21.1833 -157.7833 102° East 310 357 10,000 2,160 Climbing Honolulu Center
07:25PM 21.1833 -157.6833 90° East 330 380 12,200 2,100 Climbing Honolulu Center
07:26PM 21.1667 -157.5833 100° East 340 391 14,300 1,380 Climbing Honolulu Center
07:27PM 21.1667 -157.4833 90° East 370 426 15,000 300 Climbing Honolulu Center
07:28PM 21.1500 -157.3667 99° East 400 460 15,000  Level Honolulu Center
07:29PM 21.1333 -157.2333 98° East 420 483 15,000  Level Honolulu Center
07:30PM 21.1333 -157.1167 90° East 420 483 15,000  Level Honolulu Center
07:31PM 21.1500 -156.9833 82° East 430 495 15,000  Level Honolulu Center
07:32PM 21.1667 -156.8667 81° East 430 495 15,000 -1,140 Level Honolulu Center
07:33PM 21.1833 -156.7333 82° East 420 483 12,800 -2,040 Descending Honolulu Center
07:34PM 21.1833 -156.6167 90° East 370 426 11,000 -1,680 Descending Honolulu Center
07:35PM 21.1667 -156.5167 100° East 320 368 9,500 -1,500 Descending Honolulu Center
07:36PM 21.1500 -156.4333 102° East 290 334 8,000 -1,980 Descending Honolulu Center
07:37PM 21.1333 -156.3667 105° East 280 322 5,600 -2,460 Descending Honolulu Center
07:38PM 21.0833 -156.3000 129° Southeast 270 311 3,100 -2,040 Descending Honolulu Center
07:39PM 21.0500 -156.3333 223° Southwest 220 253 1,600 -840 Descending Honolulu Center
07:40PM 21.0000 -156.3667 212° Southwest 180 207 1,500 -180 Descending Honolulu Center
07:41PM 20.9500 -156.3833 197° South 160 184 1,300 -480 Descending Honolulu Center
07:42PM 20.9167 -156.4000 205° Southwest 130 150 600 -720 Descending Honolulu Center